Date,TemperatureHighF,TemperatureAvgF,TemperatureLowF,DewpointHighF,DewpointAvgF,DewpointLowF,HumidityHigh,HumidityAvg,HumidityLow,PressureMaxIn,PressureMinIn,WindSpeedMaxMPH,WindSpeedAvgMPH,GustSpeedMaxMPH,PrecipitationSumIn
2013-1-1,34,25,13,27,14,6,84,63,42,29.90,29.69,13,5,13,0.00
2013-1-2,27,21,13,22,13,6,93,73,56,30.07,29.84,15,4,15,0.00
2013-1-3,30,22,13,26,16,8,93,78,61,30.07,29.81,14,4,14,0.00
2013-1-4,36,31,26,24,21,17,80,67,56,29.87,29.72,24,9,24,0.00
2013-1-5,41,33,30,26,23,19,72,66,50,30.16,29.87,13,4,13,0.00
2013-1-6,39,35,31,34,29,21,97,81,65,29.95,29.75,17,6,17,0.13
2013-1-7,41,30,26,33,22,17,91,73,42,30.25,29.95,15,4,15,0.00
2013-1-8,49,33,28,25,20,16,84,61,37,30.16,30.01,15,4,15,0.00
2013-1-9,51,38,28,31,26,19,77,62,41,30.16,29.81,24,8,24,0.00
2013-1-10,49,39,34,29,25,21,77,57,37,30.46,30.13,14,3,14,0.00
2013-1-11,46,41,34,41,33,22,96,74,47,30.28,29.78,17,6,17,0.12
2013-1-12,59,50,43,50,46,41,98,86,66,29.90,29.81,16,7,16,0.00
2013-1-13,70,56,48,55,51,46,98,83,51,29.87,29.60,26,4,26,0.00
2013-1-14,55,37,28,53,26,15,95,66,48,30.25,29.60,20,5,20,0.00
2013-1-15,28,26,26,18,17,15,73,69,59,30.19,30.16,6,2,6,0.00
2013-1-17,30,22,17,20,11,6,85,63,48,30.19,29.90,13,4,13,0.00
2013-1-18,32,22,11,16,8,1,92,59,31,30.28,29.84,23,4,23,0.00
2013-1-19,50,42,32,24,18,11,44,38,30,29.90,29.42,18,6,18,0.00
2013-1-20,49,32,18,33,15,4,89,52,31,29.93,29.33,24,9,24,0.00
2013-1-21,25,20,14,11,5,2,72,53,44,29.93,29.69,15,3,15,0.00
2013-1-22,20,11,8,3,-6,-15,61,47,30,30.01,29.72,18,7,18,0.00
2013-1-23,20,10,6,3,-7,-15,56,45,34,30.04,29.90,10,2,10,0.00
2013-1-24,23,12,7,10,-2,-7,82,55,43,30.37,29.93,13,2,13,0.00
2013-1-25,23,14,9,9,1,-5,81,58,43,30.31,29.90,8,1,8,0.00
2013-1-26,34,17,7,13,7,2,81,67,33,30.22,29.90,7,1,7,0.00
2013-1-27,40,25,18,20,13,7,84,61,29,30.40,30.19,6,0,6,0.04
2013-1-28,42,33,24,42,29,14,98,85,58,30.22,29.69,13,1,13,0.25
2013-1-29,54,42,32,54,41,32,98,98,98,29.93,29.60,16,3,16,0.42
2013-1-30,64,59,53,56,51,48,98,76,59,29.63,28.95,30,8,30,0.04
2013-1-31,55,32,22,54,18,2,98,59,32,29.54,28.92,26,5,26,0.16